sensor_id;sensor_type;location;lat;lon;timestamp;pressure;altitude;pressure_sealevel;temperature;humidity
33554;BME280;19885;42.208;24.952;2023-01-24T00:00:29;101251.13;;;6.20;100.00
33554;BME280;19885;42.208;24.952;2023-01-24T00:02:54;101235.56;;;5.84;100.00
33554;BME280;19885;42.208;24.952;2023-01-24T00:05:20;101252.88;;;5.85;100.00
33554;BME280;19885;42.208;24.952;2023-01-24T00:07:45;101245.41;;;5.91;100.00
33554;BME280;19885;42.208;24.952;2023-01-24T00:10:11;101241.84;;;5.89;100.00
33554;BME280;19885;42.208;24.952;2023-01-24T00:12:37;101253.66;;;5.84;100.00
33554;BME280;19885;42.208;24.952;2023-01-24T00:15:03;101248.06;;;5.92;100.00
33554;BME280;19885;42.208;24.952;2023-01-24T00:17:29;101255.88;;;6.11;100.00
33554;BME280;19885;42.208;24.952;2023-01-24T00:19:54;101261.50;;;6.03;100.00
33554;BME280;19885;42.208;24.952;2023-01-24T00:22:20;101262.13;;;5.97;99.72
33554;BME280;19885;42.208;24.952;2023-01-24T00:24:45;101255.75;;;6.08;100.00
33554;BME280;19885;42.208;24.952;2023-01-24T00:27:11;101252.50;;;5.95;100.00
33554;BME280;19885;42.208;24.952;2023-01-24T00:29:36;101253.81;;;6.22;100.00
33554;BME280;19885;42.208;24.952;2023-01-24T00:32:05;101251.59;;;6.12;98.97
33554;BME280;19885;42.208;24.952;2023-01-24T00:34:33;101263.78;;;6.14;100.00
33554;BME280;19885;42.208;24.952;2023-01-24T00:37:01;101259.41;;;6.31;98.98
33554;BME280;19885;42.208;24.952;2023-01-24T00:39:27;101258.97;;;6.22;98.97
33554;BME280;19885;42.208;24.952;2023-01-24T00:41:58;101258.56;;;6.32;99.05
33554;BME280;19885;42.208;24.952;2023-01-24T00:44:23;101260.72;;;6.23;98.77
33554;BME280;19885;42.208;24.952;2023-01-24T00:46:51;101269.44;;;6.25;99.39
33554;BME280;19885;42.208;24.952;2023-01-24T00:49:17;101102.78;;;5.46;98.79
33554;BME280;19885;42.208;24.952;2023-01-24T00:51:42;101260.72;;;6.23;99.01
33554;BME280;19885;42.208;24.952;2023-01-24T00:54:08;101252.44;;;6.30;99.63
33554;BME280;19885;42.208;24.952;2023-01-24T00:56:33;101243.81;;;6.12;98.95
33554;BME280;19885;42.208;24.952;2023-01-24T00:58:58;101258.97;;;6.04;100.00
33554;BME280;19885;42.208;24.952;2023-01-24T01:01:24;101267.41;;;5.83;100.00
33554;BME280;19885;42.208;24.952;2023-01-24T01:03:49;101261.34;;;5.64;100.00
33554;BME280;19885;42.208;24.952;2023-01-24T01:06:15;101258.31;;;5.55;100.00
33554;BME280;19885;42.208;24.952;2023-01-24T01:08:41;101219.50;;;5.20;100.00
33554;BME280;19885;42.208;24.952;2023-01-24T01:11:07;101264.25;;;5.37;100.00
33554;BME280;19885;42.208;24.952;2023-01-24T01:13:33;101267.25;;;5.44;100.00
33554;BME280;19885;42.208;24.952;2023-01-24T01:16:20;101269.44;;;5.37;100.00
33554;BME280;19885;42.208;24.952;2023-01-24T01:18:46;101273.13;;;5.24;100.00
33554;BME280;19885;42.208;24.952;2023-01-24T01:21:15;101275.84;;;5.11;100.00
33554;BME280;19885;42.208;24.952;2023-01-24T01:23:42;101278.13;;;5.05;100.00
33554;BME280;19885;42.208;24.952;2023-01-24T01:26:10;101282.19;;;5.00;100.00
33554;BME280;19885;42.208;24.952;2023-01-24T01:28:38;101273.34;;;4.95;100.00
33554;BME280;19885;42.208;24.952;2023-01-24T01:31:04;101258.31;;;5.04;100.00
33554;BME280;19885;42.208;24.952;2023-01-24T01:33:29;101267.00;;;5.06;100.00
33554;BME280;19885;42.208;24.952;2023-01-24T01:35:55;101257.13;;;4.81;100.00
33554;BME280;19885;42.208;24.952;2023-01-24T01:38:24;101253.78;;;4.84;100.00
33554;BME280;19885;42.208;24.952;2023-01-24T01:40:53;101271.94;;;5.01;100.00
33554;BME280;19885;42.208;24.952;2023-01-24T01:43:22;101264.19;;;5.01;100.00
33554;BME280;19885;42.208;24.952;2023-01-24T01:45:49;101259.13;;;4.87;100.00
33554;BME280;19885;42.208;24.952;2023-01-24T01:48:22;101276.41;;;4.88;100.00
33554;BME280;19885;42.208;24.952;2023-01-24T01:50:51;101197.03;;;4.52;100.00
33554;BME280;19885;42.208;24.952;2023-01-24T01:53:20;101273.69;;;5.02;100.00
33554;BME280;19885;42.208;24.952;2023-01-24T01:55:50;101271.06;;;5.01;100.00
33554;BME280;19885;42.208;24.952;2023-01-24T01:58:17;101259.50;;;5.11;100.00
33554;BME280;19885;42.208;24.952;2023-01-24T02:00:43;101257.47;;;5.39;100.00
33554;BME280;19885;42.208;24.952;2023-01-24T02:03:18;101267.25;;;5.44;100.00
33554;BME280;19885;42.208;24.952;2023-01-24T02:06:05;101268.03;;;5.43;100.00
33554;BME280;19885;42.208;24.952;2023-01-24T02:08:32;101258.06;;;5.33;100.00
33554;BME280;19885;42.208;24.952;2023-01-24T02:11:03;101256.59;;;5.38;100.00
33554;BME280;19885;42.208;24.952;2023-01-24T02:13:47;101261.28;;;5.63;100.00
33554;BME280;19885;42.208;24.952;2023-01-24T02:16:15;101269.59;;;5.57;100.00
33554;BME280;19885;42.208;24.952;2023-01-24T02:18:42;101270.16;;;5.34;100.00
33554;BME280;19885;42.208;24.952;2023-01-24T02:21:15;101272.53;;;5.30;100.00
33554;BME280;19885;42.208;24.952;2023-01-24T02:23:59;101268.25;;;5.48;100.00
33554;BME280;19885;42.208;24.952;2023-01-24T02:26:28;101263.69;;;5.42;100.00
33554;BME280;19885;42.208;24.952;2023-01-24T02:28:59;101279.09;;;5.41;100.00
33554;BME280;19885;42.208;24.952;2023-01-24T02:31:26;101289.78;;;5.13;100.00
33554;BME280;19885;42.208;24.952;2023-01-24T02:33:52;101278.28;;;5.24;100.00
33554;BME280;19885;42.208;24.952;2023-01-24T02:38:56;101293.13;;;5.28;100.00
33554;BME280;19885;42.208;24.952;2023-01-24T02:41:26;101293.19;;;5.30;100.00
33554;BME280;19885;42.208;24.952;2023-01-24T02:43:55;101284.72;;;5.32;100.00
33554;BME280;19885;42.208;24.952;2023-01-24T02:46:23;101298.31;;;5.12;100.00
33554;BME280;19885;42.208;24.952;2023-01-24T02:48:52;101281.91;;;5.12;100.00
33554;BME280;19885;42.208;24.952;2023-01-24T02:51:17;101285.94;;;5.23;100.00
33554;BME280;19885;42.208;24.952;2023-01-24T02:54:02;101281.91;;;5.28;100.00
33554;BME280;19885;42.208;24.952;2023-01-24T02:56:27;101287.63;;;5.38;100.00
33554;BME280;19885;42.208;24.952;2023-01-24T02:59:11;101284.19;;;5.22;100.00
33554;BME280;19885;42.208;24.952;2023-01-24T03:01:37;101295.16;;;5.34;100.00
33554;BME280;19885;42.208;24.952;2023-01-24T03:04:02;101295.72;;;5.12;100.00
33554;BME280;19885;42.208;24.952;2023-01-24T03:06:28;101289.78;;;5.13;100.00
33554;BME280;19885;42.208;24.952;2023-01-24T03:08:53;101305.09;;;5.10;100.00
33554;BME280;19885;42.208;24.952;2023-01-24T03:11:19;101299.72;;;4.89;100.00
33554;BME280;19885;42.208;24.952;2023-01-24T03:13:44;101287.69;;;4.74;100.00
33554;BME280;19885;42.208;24.952;2023-01-24T03:16:28;101299.88;;;4.76;100.00
33554;BME280;19885;42.208;24.952;2023-01-24T03:19:12;101286.41;;;4.50;100.00
33554;BME280;19885;42.208;24.952;2023-01-24T03:21:56;101298.34;;;4.80;100.00
33554;BME280;19885;42.208;24.952;2023-01-24T03:24:40;101299.00;;;4.76;100.00
33554;BME280;19885;42.208;24.952;2023-01-24T03:27:24;101295.63;;;4.77;100.00
33554;BME280;19885;42.208;24.952;2023-01-24T03:30:08;101281.88;;;4.78;100.00
33554;BME280;19885;42.208;24.952;2023-01-24T03:32:58;101287.34;;;4.84;100.00
33554;BME280;19885;42.208;24.952;2023-01-24T03:35:42;101212.59;;;4.37;100.00
33554;BME280;19885;42.208;24.952;2023-01-24T03:38:11;101290.84;;;4.84;100.00
33554;BME280;19885;42.208;24.952;2023-01-24T03:40:55;101281.25;;;4.50;100.00
33554;BME280;19885;42.208;24.952;2023-01-24T03:43:20;101227.28;;;4.22;100.00
33554;BME280;19885;42.208;24.952;2023-01-24T03:45:51;101205.91;;;4.08;100.00
33554;BME280;19885;42.208;24.952;2023-01-24T03:48:17;101278.66;;;4.33;100.00
33554;BME280;19885;42.208;24.952;2023-01-24T03:50:52;101299.09;;;4.30;100.00
33554;BME280;19885;42.208;24.952;2023-01-24T03:53:36;101289.50;;;4.28;100.00
33554;BME280;19885;42.208;24.952;2023-01-24T03:56:02;101287.03;;;4.46;100.00
33554;BME280;19885;42.208;24.952;2023-01-24T03:58:31;101292.38;;;4.65;100.00
33554;BME280;19885;42.208;24.952;2023-01-24T04:00:57;101294.28;;;4.53;100.00
33554;BME280;19885;42.208;24.952;2023-01-24T04:03:23;101297.22;;;4.59;100.00
33554;BME280;19885;42.208;24.952;2023-01-24T04:05:50;101297.56;;;4.34;100.00
33554;BME280;19885;42.208;24.952;2023-01-24T04:08:19;101300.22;;;4.19;100.00
33554;BME280;19885;42.208;24.952;2023-01-24T04:10:44;101303.94;;;4.24;100.00
33554;BME280;19885;42.208;24.952;2023-01-24T04:13:10;101289.44;;;4.26;100.00
33554;BME280;19885;42.208;24.952;2023-01-24T04:15:37;101301.75;;;4.32;100.00
33554;BME280;19885;42.208;24.952;2023-01-24T04:18:03;101300.56;;;4.42;100.00
33554;BME280;19885;42.208;24.952;2023-01-24T04:20:32;101298.97;;;4.44;100.00
33554;BME280;19885;42.208;24.952;2023-01-24T04:23:03;101297.94;;;4.40;100.00
33554;BME280;19885;42.208;24.952;2023-01-24T04:25:29;101227.59;;;3.81;100.00
33554;BME280;19885;42.208;24.952;2023-01-24T04:27:55;101297.19;;;4.26;100.00
33554;BME280;19885;42.208;24.952;2023-01-24T04:30:21;101295.66;;;4.46;100.00
33554;BME280;19885;42.208;24.952;2023-01-24T04:32:46;101298.28;;;4.15;100.00
33554;BME280;19885;42.208;24.952;2023-01-24T04:35:17;101253.50;;;3.99;100.00
33554;BME280;19885;42.208;24.952;2023-01-24T04:37:43;101297.78;;;4.06;100.00
33554;BME280;19885;42.208;24.952;2023-01-24T04:40:09;101299.19;;;4.01;100.00
33554;BME280;19885;42.208;24.952;2023-01-24T04:42:37;101305.06;;;4.13;100.00
33554;BME280;19885;42.208;24.952;2023-01-24T04:45:03;101284.81;;;3.90;100.00
33554;BME280;19885;42.208;24.952;2023-01-24T04:47:29;101289.38;;;3.80;100.00
33554;BME280;19885;42.208;24.952;2023-01-24T04:49:54;101293.72;;;3.81;100.00
33554;BME280;19885;42.208;24.952;2023-01-24T04:52:20;101303.22;;;3.96;100.00
33554;BME280;19885;42.208;24.952;2023-01-24T04:54:45;101307.84;;;3.87;100.00
33554;BME280;19885;42.208;24.952;2023-01-24T04:57:11;101306.63;;;3.81;100.00
33554;BME280;19885;42.208;24.952;2023-01-24T04:59:37;101299.78;;;3.81;100.00
33554;BME280;19885;42.208;24.952;2023-01-24T05:02:02;101299.03;;;3.98;100.00
33554;BME280;19885;42.208;24.952;2023-01-24T05:04:28;101300.13;;;3.87;100.00
33554;BME280;19885;42.208;24.952;2023-01-24T05:06:53;101309.66;;;4.04;100.00
33554;BME280;19885;42.208;24.952;2023-01-24T05:09:19;101214.72;;;3.36;100.00
33554;BME280;19885;42.208;24.952;2023-01-24T05:11:47;101309.13;;;4.10;100.00
33554;BME280;19885;42.208;24.952;2023-01-24T05:14:13;101318.22;;;4.03;100.00
33554;BME280;19885;42.208;24.952;2023-01-24T05:16:41;101224.19;;;3.37;100.00
33554;BME280;19885;42.208;24.952;2023-01-24T05:19:13;101223.41;;;3.38;100.00
33554;BME280;19885;42.208;24.952;2023-01-24T05:21:38;101307.31;;;3.78;100.00
33554;BME280;19885;42.208;24.952;2023-01-24T05:24:04;101313.00;;;3.73;100.00
33554;BME280;19885;42.208;24.952;2023-01-24T05:26:30;101309.56;;;3.72;100.00
33554;BME280;19885;42.208;24.952;2023-01-24T05:28:55;101317.56;;;3.77;100.00
33554;BME280;19885;42.208;24.952;2023-01-24T05:31:21;101315.25;;;3.67;100.00
33554;BME280;19885;42.208;24.952;2023-01-24T05:33:46;101319.16;;;3.75;100.00
33554;BME280;19885;42.208;24.952;2023-01-24T05:36:15;101306.22;;;3.58;100.00
33554;BME280;19885;42.208;24.952;2023-01-24T05:38:41;101331.28;;;3.61;100.00
33554;BME280;19885;42.208;24.952;2023-01-24T05:41:09;101332.84;;;3.74;100.00
33554;BME280;19885;42.208;24.952;2023-01-24T05:43:36;101344.75;;;3.72;100.00
33554;BME280;19885;42.208;24.952;2023-01-24T05:46:07;101336.56;;;3.64;100.00
33554;BME280;19885;42.208;24.952;2023-01-24T05:48:34;101336.84;;;3.69;100.00
33554;BME280;19885;42.208;24.952;2023-01-24T05:51:01;101334.63;;;3.60;100.00
33554;BME280;19885;42.208;24.952;2023-01-24T05:53:28;101342.38;;;3.60;100.00
33554;BME280;19885;42.208;24.952;2023-01-24T05:56:02;101340.50;;;3.72;100.00
33554;BME280;19885;42.208;24.952;2023-01-24T05:58:31;101338.00;;;3.74;100.00
33554;BME280;19885;42.208;24.952;2023-01-24T06:00:57;101335.22;;;3.71;100.00
33554;BME280;19885;42.208;24.952;2023-01-24T06:03:23;101333.19;;;3.80;100.00
33554;BME280;19885;42.208;24.952;2023-01-24T06:05:51;101337.19;;;3.89;100.00
33554;BME280;19885;42.208;24.952;2023-01-24T06:08:17;101345.66;;;3.72;100.00
33554;BME280;19885;42.208;24.952;2023-01-24T06:10:43;101326.53;;;3.69;100.00
33554;BME280;19885;42.208;24.952;2023-01-24T06:13:09;101340.66;;;3.90;100.00
33554;BME280;19885;42.208;24.952;2023-01-24T06:15:35;101345.03;;;3.76;100.00
33554;BME280;19885;42.208;24.952;2023-01-24T06:18:01;101356.75;;;3.71;100.00
33554;BME280;19885;42.208;24.952;2023-01-24T06:20:27;101363.59;;;3.85;100.00
33554;BME280;19885;42.208;24.952;2023-01-24T06:22:56;101358.50;;;3.87;100.00
33554;BME280;19885;42.208;24.952;2023-01-24T06:25:25;101345.53;;;3.71;100.00
33554;BME280;19885;42.208;24.952;2023-01-24T06:27:51;101347.06;;;3.67;100.00
33554;BME280;19885;42.208;24.952;2023-01-24T06:30:18;101363.25;;;3.65;100.00
33554;BME280;19885;42.208;24.952;2023-01-24T06:38:22;101342.06;;;3.41;100.00
33554;BME280;19885;42.208;24.952;2023-01-24T06:40:53;101369.38;;;3.52;100.00
33554;BME280;19885;42.208;24.952;2023-01-24T06:43:19;101369.94;;;3.61;100.00
33554;BME280;19885;42.208;24.952;2023-01-24T06:45:45;101374.78;;;3.71;100.00
33554;BME280;19885;42.208;24.952;2023-01-24T06:48:10;101378.25;;;3.57;100.00
33554;BME280;19885;42.208;24.952;2023-01-24T06:50:36;101382.28;;;3.52;100.00
33554;BME280;19885;42.208;24.952;2023-01-24T06:53:02;101390.06;;;3.68;100.00
33554;BME280;19885;42.208;24.952;2023-01-24T06:55:27;101392.50;;;3.65;100.00
33554;BME280;19885;42.208;24.952;2023-01-24T06:57:57;101394.00;;;3.76;100.00
33554;BME280;19885;42.208;24.952;2023-01-24T07:00:23;101393.91;;;3.89;100.00
33554;BME280;19885;42.208;24.952;2023-01-24T07:03:09;101389.13;;;3.81;100.00
33554;BME280;19885;42.208;24.952;2023-01-24T07:05:36;101392.94;;;3.87;100.00
33554;BME280;19885;42.208;24.952;2023-01-24T07:08:06;101400.22;;;3.80;100.00
33554;BME280;19885;42.208;24.952;2023-01-24T07:10:33;101342.53;;;3.48;100.00
33554;BME280;19885;42.208;24.952;2023-01-24T07:13:01;101403.97;;;3.70;100.00
33554;BME280;19885;42.208;24.952;2023-01-24T07:15:28;101419.25;;;3.67;100.00
33554;BME280;19885;42.208;24.952;2023-01-24T07:17:53;101417.28;;;3.63;100.00
33554;BME280;19885;42.208;24.952;2023-01-24T07:20:19;101418.69;;;3.73;100.00
33554;BME280;19885;42.208;24.952;2023-01-24T07:22:45;101423.78;;;3.71;100.00
33554;BME280;19885;42.208;24.952;2023-01-24T07:25:17;101407.53;;;3.72;100.00
33554;BME280;19885;42.208;24.952;2023-01-24T07:27:45;101423.16;;;3.75;100.00
33554;BME280;19885;42.208;24.952;2023-01-24T07:30:12;101415.13;;;4.00;100.00
33554;BME280;19885;42.208;24.952;2023-01-24T07:32:41;101412.13;;;3.92;100.00
33554;BME280;19885;42.208;24.952;2023-01-24T07:35:06;101421.38;;;3.89;100.00
33554;BME280;19885;42.208;24.952;2023-01-24T07:37:37;101419.16;;;3.95;100.00
33554;BME280;19885;42.208;24.952;2023-01-24T07:40:05;101423.34;;;3.78;100.00
33554;BME280;19885;42.208;24.952;2023-01-24T07:42:39;101430.44;;;3.82;100.00
33554;BME280;19885;42.208;24.952;2023-01-24T07:45:06;101426.16;;;3.68;100.00
33554;BME280;19885;42.208;24.952;2023-01-24T07:47:34;101426.63;;;3.76;100.00
33554;BME280;19885;42.208;24.952;2023-01-24T07:50:03;101425.19;;;3.81;100.00
33554;BME280;19885;42.208;24.952;2023-01-24T07:52:31;101403.34;;;3.74;99.59
33554;BME280;19885;42.208;24.952;2023-01-24T07:54:59;101420.50;;;3.88;99.96
33554;BME280;19885;42.208;24.952;2023-01-24T07:57:27;101430.81;;;3.88;99.36
33554;BME280;19885;42.208;24.952;2023-01-24T07:59:52;101412.84;;;3.90;99.46
33554;BME280;19885;42.208;24.952;2023-01-24T08:02:21;101433.19;;;4.00;97.99
33554;BME280;19885;42.208;24.952;2023-01-24T08:04:46;101431.50;;;4.00;98.25
33554;BME280;19885;42.208;24.952;2023-01-24T08:07:15;101428.47;;;4.07;97.85
33554;BME280;19885;42.208;24.952;2023-01-24T08:09:47;101424.47;;;4.12;97.86
33554;BME280;19885;42.208;24.952;2023-01-24T08:12:14;101419.59;;;4.02;97.01
33554;BME280;19885;42.208;24.952;2023-01-24T08:14:40;101433.13;;;4.13;97.40
33554;BME280;19885;42.208;24.952;2023-01-24T08:17:06;101429.72;;;4.14;97.71
33554;BME280;19885;42.208;24.952;2023-01-24T08:19:31;101446.28;;;4.17;97.13
33554;BME280;19885;42.208;24.952;2023-01-24T08:21:59;101450.09;;;4.09;96.81
33554;BME280;19885;42.208;24.952;2023-01-24T08:24:24;101448.41;;;4.10;96.88
33554;BME280;19885;42.208;24.952;2023-01-24T08:26:50;101438.81;;;4.07;97.97
33554;BME280;19885;42.208;24.952;2023-01-24T08:29:16;101451.78;;;4.23;96.64
33554;BME280;19885;42.208;24.952;2023-01-24T08:31:42;101450.06;;;4.39;97.07
33554;BME280;19885;42.208;24.952;2023-01-24T08:34:09;101443.53;;;4.60;95.37
33554;BME280;19885;42.208;24.952;2023-01-24T08:36:35;101423.81;;;4.46;95.16
33554;BME280;19885;42.208;24.952;2023-01-24T08:39:03;101437.84;;;4.51;95.39
33554;BME280;19885;42.208;24.952;2023-01-24T08:41:32;101433.25;;;4.45;95.46
33554;BME280;19885;42.208;24.952;2023-01-24T08:44:00;101433.28;;;4.61;95.98
33554;BME280;19885;42.208;24.952;2023-01-24T08:46:29;101437.00;;;4.66;95.00
33554;BME280;19885;42.208;24.952;2023-01-24T08:48:54;101405.22;;;4.37;93.03
33554;BME280;19885;42.208;24.952;2023-01-24T08:51:20;101420.63;;;4.50;94.38
33554;BME280;19885;42.208;24.952;2023-01-24T08:53:49;101434.53;;;4.84;92.80
33554;BME280;19885;42.208;24.952;2023-01-24T08:56:14;101432.78;;;4.83;93.18
33554;BME280;19885;42.208;24.952;2023-01-24T08:58:40;101431.50;;;4.91;92.17
33554;BME280;19885;42.208;24.952;2023-01-24T09:01:09;101449.81;;;4.95;91.03
33554;BME280;19885;42.208;24.952;2023-01-24T09:03:35;101431.19;;;4.85;91.48
33554;BME280;19885;42.208;24.952;2023-01-24T09:06:02;101441.09;;;4.93;91.21
33554;BME280;19885;42.208;24.952;2023-01-24T09:08:28;101436.44;;;5.02;90.87
33554;BME280;19885;42.208;24.952;2023-01-24T09:10:57;101436.78;;;5.41;90.98
33554;BME280;19885;42.208;24.952;2023-01-24T09:13:23;101438.50;;;5.40;89.19
33554;BME280;19885;42.208;24.952;2023-01-24T09:15:58;101430.06;;;5.12;89.32
33554;BME280;19885;42.208;24.952;2023-01-24T09:18:27;101430.72;;;5.08;91.09
33554;BME280;19885;42.208;24.952;2023-01-24T09:20:53;101344.00;;;4.65;89.62
33554;BME280;19885;42.208;24.952;2023-01-24T09:23:18;101431.47;;;5.38;90.04
33554;BME280;19885;42.208;24.952;2023-01-24T09:25:54;101427.69;;;5.31;90.02
33554;BME280;19885;42.208;24.952;2023-01-24T09:28:20;101427.25;;;5.40;89.20
33554;BME280;19885;42.208;24.952;2023-01-24T09:30:47;101425.81;;;5.61;89.27
33554;BME280;19885;42.208;24.952;2023-01-24T09:33:13;101403.22;;;5.74;86.54
33554;BME280;19885;42.208;24.952;2023-01-24T09:35:50;101420.88;;;5.49;87.94
33554;BME280;19885;42.208;24.952;2023-01-24T09:38:16;101323.50;;;4.84;88.60
33554;BME280;19885;42.208;24.952;2023-01-24T09:40:53;101401.72;;;5.30;88.39
33554;BME280;19885;42.208;24.952;2023-01-24T09:46:24;101421.53;;;5.29;88.59
33554;BME280;19885;42.208;24.952;2023-01-24T09:49:17;101398.91;;;5.25;88.55
33554;BME280;19885;42.208;24.952;2023-01-24T09:51:51;101414.59;;;5.28;88.57
33554;BME280;19885;42.208;24.952;2023-01-24T09:57:37;101408.00;;;5.67;89.05
33554;BME280;19885;42.208;24.952;2023-01-24T10:00:30;101401.59;;;5.76;86.15
33554;BME280;19885;42.208;24.952;2023-01-24T10:02:58;101362.06;;;5.45;86.52
33554;BME280;19885;42.208;24.952;2023-01-24T10:05:38;101403.63;;;5.66;86.68
33554;BME280;19885;42.208;24.952;2023-01-24T10:11:01;101401.63;;;5.60;87.08
33554;BME280;19885;42.208;24.952;2023-01-24T10:13:51;101388.34;;;5.87;87.34
33554;BME280;19885;42.208;24.952;2023-01-24T10:19:23;101378.97;;;5.72;85.53
33554;BME280;19885;42.208;24.952;2023-01-24T10:22:39;101376.56;;;5.59;86.08
33554;BME280;19885;42.208;24.952;2023-01-24T10:26:05;101384.22;;;5.40;85.67
33554;BME280;19885;42.208;24.952;2023-01-24T10:28:32;101281.88;;;4.94;87.02
33554;BME280;19885;42.208;24.952;2023-01-24T10:31:07;101375.50;;;5.38;86.77
33554;BME280;19885;42.208;24.952;2023-01-24T10:33:39;101364.16;;;5.36;87.05
33554;BME280;19885;42.208;24.952;2023-01-24T10:36:20;101353.94;;;5.38;87.60
33554;BME280;19885;42.208;24.952;2023-01-24T10:38:49;101355.59;;;5.53;86.83
33554;BME280;19885;42.208;24.952;2023-01-24T10:41:23;101357.28;;;5.53;85.89
33554;BME280;19885;42.208;24.952;2023-01-24T10:44:14;101351.88;;;5.48;87.21
33554;BME280;19885;42.208;24.952;2023-01-24T10:49:37;101343.47;;;5.52;85.04
33554;BME280;19885;42.208;24.952;2023-01-24T10:52:20;101353.97;;;5.55;85.35
33554;BME280;19885;42.208;24.952;2023-01-24T10:54:55;101328.81;;;5.69;85.87
33554;BME280;19885;42.208;24.952;2023-01-24T10:57:39;101341.44;;;5.81;83.43
33554;BME280;19885;42.208;24.952;2023-01-24T11:00:24;101325.19;;;5.65;85.65
33554;BME280;19885;42.208;24.952;2023-01-24T11:02:57;101341.28;;;5.77;84.99
33554;BME280;19885;42.208;24.952;2023-01-24T11:05:25;101330.66;;;5.71;83.92
33554;BME280;19885;42.208;24.952;2023-01-24T11:07:59;101319.19;;;5.66;85.81
33554;BME280;19885;42.208;24.952;2023-01-24T11:10:27;101333.25;;;5.71;84.92
33554;BME280;19885;42.208;24.952;2023-01-24T11:12:57;101340.53;;;5.62;86.30
33554;BME280;19885;42.208;24.952;2023-01-24T11:15:31;101339.59;;;5.60;86.62
33554;BME280;19885;42.208;24.952;2023-01-24T11:20:39;101336.13;;;5.77;86.58
33554;BME280;19885;42.208;24.952;2023-01-24T11:23:20;101335.16;;;5.75;85.80
33554;BME280;19885;42.208;24.952;2023-01-24T11:25:56;101337.31;;;5.50;87.51
33554;BME280;19885;42.208;24.952;2023-01-24T11:31:05;101323.56;;;5.67;87.17
33554;BME280;19885;42.208;24.952;2023-01-24T11:36:36;101330.06;;;5.43;86.35
33554;BME280;19885;42.208;24.952;2023-01-24T11:39:35;101248.22;;;5.26;86.89
33554;BME280;19885;42.208;24.952;2023-01-24T11:45:13;101324.78;;;6.09;85.07
33554;BME280;19885;42.208;24.952;2023-01-24T11:48:15;101320.66;;;6.13;84.84
33554;BME280;19885;42.208;24.952;2023-01-24T11:56:14;101322.56;;;6.17;83.24
33554;BME280;19885;42.208;24.952;2023-01-24T11:58:56;101294.69;;;6.11;81.85
33554;BME280;19885;42.208;24.952;2023-01-24T12:01:49;101307.56;;;6.10;82.74
33554;BME280;19885;42.208;24.952;2023-01-24T12:04:55;101309.25;;;6.27;81.92
33554;BME280;19885;42.208;24.952;2023-01-24T12:15:48;101309.91;;;6.40;81.76
33554;BME280;19885;42.208;24.952;2023-01-24T12:21:05;101313.06;;;6.35;80.20
33554;BME280;19885;42.208;24.952;2023-01-24T12:26:34;101301.03;;;6.18;82.93
33554;BME280;19885;42.208;24.952;2023-01-24T12:29:21;101312.91;;;6.13;82.45
33554;BME280;19885;42.208;24.952;2023-01-24T12:32:17;101303.44;;;5.79;82.72
33554;BME280;19885;42.208;24.952;2023-01-24T12:35:04;101301.38;;;5.72;83.31
33554;BME280;19885;42.208;24.952;2023-01-24T12:40:18;101305.81;;;5.57;85.08
33554;BME280;19885;42.208;24.952;2023-01-24T12:42:57;101306.69;;;5.58;85.52
33554;BME280;19885;42.208;24.952;2023-01-24T12:45:39;101298.22;;;5.60;85.25
33554;BME280;19885;42.208;24.952;2023-01-24T12:48:34;101312.16;;;5.82;86.79
33554;BME280;19885;42.208;24.952;2023-01-24T12:54:12;101299.19;;;5.80;83.73
33554;BME280;19885;42.208;24.952;2023-01-24T12:59:11;101324.31;;;5.83;84.00
33554;BME280;19885;42.208;24.952;2023-01-24T13:09:45;101322.13;;;6.08;82.13
33554;BME280;19885;42.208;24.952;2023-01-24T13:12:20;101327.31;;;6.08;84.57
33554;BME280;19885;42.208;24.952;2023-01-24T13:20:28;101241.56;;;5.65;82.04
33554;BME280;19885;42.208;24.952;2023-01-24T13:23:13;101317.69;;;6.05;83.97
33554;BME280;19885;42.208;24.952;2023-01-24T13:28:36;101320.75;;;5.81;84.68
33554;BME280;19885;42.208;24.952;2023-01-24T13:31:28;101318.38;;;6.01;84.72
33554;BME280;19885;42.208;24.952;2023-01-24T13:33:58;101233.63;;;5.44;84.33
33554;BME280;19885;42.208;24.952;2023-01-24T13:36:35;101215.31;;;5.40;84.71
33554;BME280;19885;42.208;24.952;2023-01-24T13:39:03;101316.06;;;5.90;84.36
33554;BME280;19885;42.208;24.952;2023-01-24T13:52:00;101332.09;;;5.49;87.20
33554;BME280;19885;42.208;24.952;2023-01-24T13:54:40;101303.75;;;5.34;87.42
33554;BME280;19885;42.208;24.952;2023-01-24T13:57:27;101244.25;;;4.99;87.40
33554;BME280;19885;42.208;24.952;2023-01-24T14:03:31;101332.81;;;5.46;86.05
33554;BME280;19885;42.208;24.952;2023-01-24T14:21:25;101329.59;;;5.68;84.98
33554;BME280;19885;42.208;24.952;2023-01-24T14:23:58;101326.41;;;5.56;85.37
33554;BME280;19885;42.208;24.952;2023-01-24T14:26:27;101324.41;;;5.50;85.69
33554;BME280;19885;42.208;24.952;2023-01-24T14:29:02;101325.38;;;5.52;85.76
33554;BME280;19885;42.208;24.952;2023-01-24T14:31:35;101316.59;;;5.66;86.23
33554;BME280;19885;42.208;24.952;2023-01-24T14:36:43;101244.69;;;5.24;85.37
33554;BME280;19885;42.208;24.952;2023-01-24T14:41:39;101321.81;;;5.50;86.30
33554;BME280;19885;42.208;24.952;2023-01-24T14:44:19;101330.75;;;5.57;86.29
33554;BME280;19885;42.208;24.952;2023-01-24T14:46:56;101318.78;;;5.41;84.72
33554;BME280;19885;42.208;24.952;2023-01-24T14:49:31;101321.31;;;5.57;85.32
33554;BME280;19885;42.208;24.952;2023-01-24T14:51:57;101323.09;;;5.58;85.85
33554;BME280;19885;42.208;24.952;2023-01-24T14:54:23;101325.19;;;5.65;85.61
33554;BME280;19885;42.208;24.952;2023-01-24T14:56:49;101325.47;;;5.71;85.58